Time;durP1;ratioP1;P1;durP2;ratioP2;P2;SDS_P1;SDS_P2;PMS_P1;PMS_P2;Temp;Humidity;BMP_temperature;BMP_pressure;BME280_temperature;BME280_humidity;BME280_pressure;Samples;Min_cycle;Max_cycle;Signal;HPM_P1;HPM_P2
2023/09/14 00:00:52;;;;;;;7.68;3.20;;;;;;;13.27;100.00;102311.09;5086289;28;20394;-60
2023/09/14 00:03:18;;;;;;;10.85;3.05;;;;;;;13.25;100.00;102311.13;5088520;28;20051;-59
2023/09/14 00:05:47;;;;;;;8.98;3.17;;;;;;;13.23;100.00;102322.66;5086926;28;20035;-59
2023/09/14 00:08:12;;;;;;;9.95;3.55;;;;;;;13.20;100.00;102312.13;5085129;28;20033;-60
2023/09/14 00:10:38;;;;;;;8.27;3.67;;;;;;;13.16;100.00;102321.94;5086244;28;20028;-59
2023/09/14 00:13:04;;;;;;;8.13;3.00;;;;;;;13.16;100.00;102321.06;5086114;28;20024;-61
2023/09/14 00:15:30;;;;;;;8.57;3.40;;;;;;;13.17;100.00;102322.78;5086355;28;20028;-60
2023/09/14 00:17:55;;;;;;;5.75;3.28;;;;;;;13.16;100.00;102324.59;5086257;28;20029;-59
2023/09/14 00:20:23;;;;;;;12.32;3.67;;;;;;;13.18;100.00;102321.91;5086881;28;20020;-60
2023/09/14 00:22:50;;;;;;;10.32;4.72;;;;;;;13.18;100.00;102322.75;5085560;28;20657;-59
2023/09/14 00:25:16;;;;;;;10.48;4.10;;;;;;;13.23;100.00;102322.66;5088266;28;20103;-59
2023/09/14 00:27:42;;;;;;;12.82;4.70;;;;;;;13.25;100.00;102318.22;5086142;28;20097;-60
2023/09/14 00:30:08;;;;;;;8.57;4.35;;;;;;;13.30;100.00;102311.03;5067248;28;20020;-61
2023/09/14 00:32:38;;;;;;;8.23;3.50;;;;;;;13.29;100.00;102319.88;5066497;28;20025;-59
2023/09/14 00:35:05;;;;;;;7.38;3.58;;;;;;;13.29;100.00;102324.31;5066892;28;20033;-60
2023/09/14 00:37:31;;;;;;;9.38;4.00;;;;;;;13.30;100.00;102318.13;5066594;28;20020;-59
2023/09/14 00:39:56;;;;;;;5.80;3.78;;;;;;;13.26;100.00;102319.97;5066752;28;20082;-60
2023/09/14 00:42:22;;;;;;;9.07;3.65;;;;;;;13.26;100.00;102319.97;5066843;28;20025;-59
2023/09/14 00:44:47;;;;;;;13.68;3.90;;;;;;;13.21;100.00;102312.09;5080318;28;20032;-60
2023/09/14 00:47:12;;;;;;;13.38;4.15;;;;;;;13.22;100.00;102313.84;5086686;28;20020;-60
2023/09/14 00:49:38;;;;;;;16.05;4.43;;;;;;;13.23;100.00;102309.44;5081548;28;20019;-61
2023/09/14 00:52:05;;;;;;;10.88;4.18;;;;;;;13.23;100.00;102310.31;5087427;28;20026;-61
2023/09/14 00:54:30;;;;;;;6.50;4.15;;;;;;;13.23;100.00;102314.72;5084326;28;20039;-61
2023/09/14 00:56:55;;;;;;;10.02;4.00;;;;;;;13.23;100.00;102315.59;5071324;28;20032;-61
2023/09/14 00:59:21;;;;;;;8.95;4.45;;;;;;;13.22;100.00;102319.13;5066164;28;20024;-59
2023/09/14 01:01:47;;;;;;;12.77;4.53;;;;;;;13.22;100.00;102316.50;5081012;28;20497;-60
2023/09/14 01:04:12;;;;;;;7.80;3.95;;;;;;;13.27;100.00;102311.97;5066973;28;20020;-59
2023/09/14 01:06:37;;;;;;;9.15;4.63;;;;;;;13.27;100.00;102314.63;5072765;28;20100;-60
2023/09/14 01:09:05;;;;;;;11.07;4.80;;;;;;;13.22;100.00;102311.19;5086991;28;20361;-59
2023/09/14 01:11:30;;;;;;;14.82;4.50;;;;;;;13.21;100.00;102316.53;5084811;28;20024;-60
2023/09/14 01:14:28;;;;;;;12.10;4.75;;;;;;;13.19;100.00;102313.06;5102909;28;20101;-61
2023/09/14 01:17:01;;;;;;;9.00;4.60;;;;;;;13.18;100.00;102313.97;5084555;28;20042;-62
2023/09/14 01:19:38;;;;;;;14.57;5.00;;;;;;;13.15;100.00;102309.59;5084976;28;20523;-60
2023/09/14 01:22:26;;;;;;;9.43;4.47;;;;;;;13.15;100.00;102314.88;5071922;28;20029;-60
2023/09/14 01:24:57;;;;;;;12.07;4.90;;;;;;;13.13;100.00;102314.91;5082515;28;20025;-61
2023/09/14 01:27:22;;;;;;;11.02;4.80;;;;;;;13.14;100.00;102311.38;5079492;28;20073;-61
2023/09/14 01:29:48;;;;;;;10.82;4.65;;;;;;;13.10;100.00;102314.13;5085397;28;20115;-61
2023/09/14 01:32:13;;;;;;;14.90;5.43;;;;;;;13.08;100.00;102316.81;5074186;28;20082;-59
2023/09/14 01:34:39;;;;;;;13.50;6.07;;;;;;;13.06;100.00;102308.00;5065958;28;20021;-62
2023/09/14 01:37:05;;;;;;;11.52;5.10;;;;;;;13.05;100.00;102300.09;5074848;28;20032;-61
2023/09/14 01:39:32;;;;;;;9.32;5.03;;;;;;;13.07;100.00;102308.88;5086409;28;20024;-61
2023/09/14 01:41:58;;;;;;;11.38;5.03;;;;;;;13.00;100.00;102309.00;5083865;28;20100;-61
2023/09/14 01:44:27;;;;;;;12.15;4.75;;;;;;;13.02;100.00;102306.34;5086463;28;20047;-61
2023/09/14 01:46:52;;;;;;;17.73;5.75;;;;;;;13.04;100.00;102298.38;5084705;28;20024;-62
2023/09/14 01:49:18;;;;;;;14.60;5.53;;;;;;;13.04;100.00;102308.94;5086855;28;20032;-60
2023/09/14 01:51:43;;;;;;;10.75;5.35;;;;;;;13.01;100.00;102313.38;5084642;28;20020;-59
2023/09/14 01:54:09;;;;;;;12.80;5.05;;;;;;;13.00;100.00;102311.66;5086378;28;20048;-59
2023/09/14 01:56:34;;;;;;;14.88;5.63;;;;;;;13.00;100.00;102308.13;5085105;28;20483;-60
2023/09/14 01:58:59;;;;;;;11.30;5.03;;;;;;;12.99;100.00;102302.00;5086524;28;20104;-60
2023/09/14 02:01:25;;;;;;;11.57;4.82;;;;;;;12.95;100.00;102302.97;5083526;28;20020;-59
2023/09/14 02:03:50;;;;;;;9.43;4.97;;;;;;;12.94;100.00;102305.63;5085118;28;20073;-61
2023/09/14 02:06:15;;;;;;;12.90;5.03;;;;;;;12.90;100.00;102302.16;5085978;28;20032;-59
2023/09/14 02:08:41;;;;;;;11.50;4.95;;;;;;;12.87;100.00;102300.47;5084486;28;20194;-61
2023/09/14 02:11:06;;;;;;;11.43;5.38;;;;;;;12.80;100.00;102296.22;5085670;28;20689;-61
2023/09/14 02:13:34;;;;;;;8.02;4.40;;;;;;;12.74;100.00;102291.88;5085702;28;20302;-61
2023/09/14 02:15:59;;;;;;;8.30;4.60;;;;;;;12.71;100.00;102294.63;5088969;28;20035;-59
2023/09/14 02:18:24;;;;;;;10.43;4.35;;;;;;;12.68;100.00;102294.69;5088950;28;20032;-61
2023/09/14 02:20:50;;;;;;;10.52;4.50;;;;;;;12.65;100.00;102289.44;5090643;28;20091;-60
2023/09/14 02:23:17;;;;;;;12.68;4.80;;;;;;;12.60;100.00;102278.94;5080247;28;20035;-63
2023/09/14 02:25:43;;;;;;;12.88;4.57;;;;;;;12.57;100.00;102288.69;5069351;28;20017;-61
2023/09/14 02:28:08;;;;;;;8.13;3.97;;;;;;;12.54;100.00;102281.69;5068756;28;20029;-60
2023/09/14 02:30:37;;;;;;;9.57;4.30;;;;;;;12.47;100.00;102286.25;5067529;28;20103;-57
2023/09/14 02:33:03;;;;;;;7.95;3.80;;;;;;;12.43;100.00;102287.19;5068951;28;20040;-61
2023/09/14 02:35:28;;;;;;;6.68;3.85;;;;;;;12.35;100.00;102282.06;5069641;28;20372;-60
2023/09/14 02:37:54;;;;;;;8.43;3.95;;;;;;;12.30;100.00;102285.66;5070740;28;20028;-62
2023/09/14 02:40:19;;;;;;;5.53;3.08;;;;;;;12.26;100.00;102290.16;5090566;28;20058;-59
2023/09/14 02:42:44;;;;;;;7.88;3.42;;;;;;;12.23;100.00;102280.50;5088829;28;20025;-59
2023/09/14 02:45:10;;;;;;;7.68;3.53;;;;;;;12.20;100.00;102284.97;5088753;28;20034;-59
2023/09/14 02:47:35;;;;;;;6.43;3.50;;;;;;;12.18;100.00;102289.41;5087906;28;20063;-59
2023/09/14 02:50:00;;;;;;;9.50;3.63;;;;;;;12.17;100.00;102285.91;5087971;28;20030;-60
2023/09/14 02:52:26;;;;;;;7.85;3.85;;;;;;;12.19;100.00;102284.09;5088958;28;20536;-59
2023/09/14 02:54:51;;;;;;;8.73;3.95;;;;;;;12.18;100.00;102285.00;5088651;28;20085;-60
2023/09/14 02:57:16;;;;;;;9.85;4.30;;;;;;;12.18;100.00;102284.13;5088529;28;20513;-60
2023/09/14 02:59:42;;;;;;;12.60;4.00;;;;;;;12.21;100.00;102286.69;5088458;28;20074;-60
2023/09/14 03:02:08;;;;;;;10.38;4.47;;;;;;;12.19;100.00;102283.22;5087204;28;20679;-59
2023/09/14 03:04:33;;;;;;;12.02;4.05;;;;;;;12.18;100.00;102278.81;5088444;28;20024;-59
2023/09/14 03:06:59;;;;;;;9.30;5.00;;;;;;;12.22;100.00;102272.63;5087558;28;20050;-60
2023/09/14 03:09:24;;;;;;;8.07;4.20;;;;;;;12.20;100.00;102280.56;5069426;28;20040;-59
2023/09/14 03:11:50;;;;;;;8.73;4.60;;;;;;;12.20;100.00;102274.41;5067198;28;20493;-59
2023/09/14 03:14:15;;;;;;;7.90;4.57;;;;;;;12.18;100.00;102270.91;5102738;28;20036;-61
2023/09/14 03:16:40;;;;;;;8.68;4.55;;;;;;;12.19;100.00;102277.94;5087718;28;20028;-61
2023/09/14 03:19:06;;;;;;;9.88;4.72;;;;;;;12.18;100.00;102278.81;5088475;28;20016;-60
2023/09/14 03:21:31;;;;;;;15.00;5.30;;;;;;;12.18;100.00;102268.25;5088521;28;20088;-60
2023/09/14 03:23:57;;;;;;;10.63;5.57;;;;;;;12.19;100.00;102272.66;5085575;28;20099;-61
2023/09/14 03:26:29;;;;;;;10.18;5.00;;;;;;;12.21;100.00;102269.09;5086629;28;20028;-61
2023/09/14 03:28:54;;;;;;;15.40;5.75;;;;;;;12.23;100.00;102272.59;5087524;28;20024;-59
2023/09/14 03:31:20;;;;;;;13.82;6.40;;;;;;;12.25;100.00;102269.88;5087164;28;20370;-62
2023/09/14 03:33:47;;;;;;;15.40;6.10;;;;;;;12.25;100.00;102269.88;5087959;28;20497;-61
2023/09/14 03:36:13;;;;;;;12.30;5.78;;;;;;;12.24;100.00;102265.50;5088510;28;20040;-59
2023/09/14 03:38:38;;;;;;;9.80;5.97;;;;;;;12.23;100.00;102263.78;5082881;28;20021;-61
2023/09/14 03:41:04;;;;;;;12.63;6.25;;;;;;;12.22;100.00;102267.31;5068335;28;20062;-60
2023/09/14 03:43:30;;;;;;;10.63;4.88;;;;;;;12.24;100.00;102273.44;5069765;28;20032;-60
2023/09/14 03:45:57;;;;;;;16.02;6.78;;;;;;;12.25;100.00;102275.16;5088276;28;20080;-61
2023/09/14 03:48:22;;;;;;;17.17;7.05;;;;;;;12.25;100.00;102272.53;5085424;28;20474;-61
2023/09/14 03:50:48;;;;;;;14.00;6.88;;;;;;;12.28;100.00;102276.91;5068712;28;20021;-58
2023/09/14 03:53:13;;;;;;;11.13;6.72;;;;;;;12.28;100.00;102274.25;5078458;28;20040;-62
2023/09/14 03:55:38;;;;;;;15.18;6.78;;;;;;;12.26;100.00;102269.00;5087350;28;20047;-60
2023/09/14 03:58:04;;;;;;;19.42;7.10;;;;;;;12.27;100.00;102270.75;5077558;28;20024;-62
2023/09/14 04:00:29;;;;;;;13.48;6.57;;;;;;;12.29;100.00;102268.06;5066666;28;20099;-60
2023/09/14 04:02:54;;;;;;;12.20;5.97;;;;;;;12.31;100.00;102274.22;5090024;28;20394;-60
2023/09/14 04:05:20;;;;;;;12.57;6.55;;;;;;;12.34;100.00;102275.00;5088194;28;20045;-59
2023/09/14 04:07:46;;;;;;;13.18;6.22;;;;;;;12.33;100.00;102265.34;5087252;28;20375;-61
2023/09/14 04:10:11;;;;;;;11.27;6.07;;;;;;;12.30;100.00;102262.75;5088065;28;20066;-60
2023/09/14 04:12:38;;;;;;;16.58;6.50;;;;;;;12.29;100.00;102257.50;5085944;28;20107;-60
2023/09/14 04:15:04;;;;;;;15.90;6.20;;;;;;;12.33;100.00;102264.47;5087750;28;20077;-60
2023/09/14 04:17:29;;;;;;;15.73;6.40;;;;;;;12.31;100.00;102261.00;5086675;28;20402;-60
2023/09/14 04:19:54;;;;;;;16.08;6.50;;;;;;;12.28;100.00;102261.91;5088419;28;20517;-61
2023/09/14 04:22:20;;;;;;;17.95;6.22;;;;;;;12.27;100.00;102254.88;5103133;28;20020;-61
2023/09/14 04:24:45;;;;;;;16.52;6.55;;;;;;;12.33;100.00;102257.41;5086385;28;20040;-60
2023/09/14 04:27:10;;;;;;;10.65;5.95;;;;;;;12.36;100.00;102254.72;5087263;28;20024;-61
2023/09/14 04:29:36;;;;;;;12.73;5.38;;;;;;;12.40;100.00;102260.81;5085226;28;20047;-58
2023/09/14 04:32:03;;;;;;;14.75;5.75;;;;;;;12.36;100.00;102259.13;5087326;28;20527;-62
2023/09/14 04:34:28;;;;;;;15.60;6.25;;;;;;;12.34;100.00;102255.66;5075797;28;20390;-60
2023/09/14 04:36:53;;;;;;;15.05;5.40;;;;;;;12.34;100.00;102266.22;5066696;28;20017;-60
2023/09/14 04:39:19;;;;;;;10.00;5.70;;;;;;;12.39;100.00;102267.00;5074724;28;20103;-61
2023/09/14 04:41:44;;;;;;;10.13;5.20;;;;;;;12.38;100.00;102258.19;5086858;28;20019;-61
2023/09/14 04:44:09;;;;;;;15.20;5.45;;;;;;;12.38;100.00;102257.34;5085152;28;20105;-60
2023/09/14 04:46:35;;;;;;;14.05;4.82;;;;;;;12.40;100.00;102262.59;5085620;28;20025;-60
2023/09/14 04:49:00;;;;;;;16.48;5.35;;;;;;;12.39;100.00;102269.66;5085152;28;20028;-62
2023/09/14 04:51:26;;;;;;;13.55;4.97;;;;;;;12.38;100.00;102262.63;5085071;28;20036;-60
2023/09/14 04:53:52;;;;;;;14.65;5.63;;;;;;;12.37;100.00;102274.97;5086236;28;20091;-62
2023/09/14 04:56:18;;;;;;;8.25;5.07;;;;;;;12.38;100.00;102284.63;5068553;28;20059;-61
2023/09/14 04:58:44;;;;;;;10.63;4.97;;;;;;;12.37;100.00;102277.59;5065566;28;20027;-60
2023/09/14 05:01:09;;;;;;;13.32;5.25;;;;;;;12.39;100.00;102280.22;5072612;28;20021;-60
2023/09/14 05:03:35;;;;;;;20.15;5.38;;;;;;;12.41;100.00;102273.16;5085741;28;20020;-60
2023/09/14 05:06:02;;;;;;;10.05;4.80;;;;;;;12.41;100.00;102273.16;5085632;28;20490;-61
2023/09/14 05:08:27;;;;;;;13.82;5.15;;;;;;;12.40;100.00;102279.31;5085389;28;20024;-59
2023/09/14 05:10:53;;;;;;;15.20;5.28;;;;;;;12.40;100.00;102281.09;5086194;28;20362;-60
2023/09/14 05:13:18;;;;;;;18.83;6.10;;;;;;;12.36;100.00;102275.88;5085595;28;20122;-60
2023/09/14 05:15:47;;;;;;;14.15;5.63;;;;;;;12.36;100.00;102270.59;5085073;28;20492;-59
2023/09/14 05:18:13;;;;;;;8.68;4.70;;;;;;;12.34;100.00;102276.81;5084755;28;20120;-62
2023/09/14 05:20:45;;;;;;;11.82;5.32;;;;;;;12.33;100.00;102269.75;5087020;28;20441;-60
2023/09/14 05:23:10;;;;;;;16.17;5.97;;;;;;;12.32;100.00;102268.91;5085708;28;20027;-60
2023/09/14 05:25:36;;;;;;;14.25;5.90;;;;;;;12.33;100.00;102275.91;5085829;28;20034;-62
2023/09/14 05:28:01;;;;;;;12.55;5.35;;;;;;;12.34;100.00;102272.38;5084579;28;20028;-61
2023/09/14 05:30:26;;;;;;;12.98;5.55;;;;;;;12.38;100.00;102267.91;5084791;28;20024;-62
2023/09/14 05:32:52;;;;;;;11.15;5.28;;;;;;;12.41;100.00;102267.84;5086011;28;20032;-61
2023/09/14 05:35:18;;;;;;;18.02;6.07;;;;;;;12.43;100.00;102266.03;5084949;28;20048;-60
2023/09/14 05:37:44;;;;;;;20.95;6.20;;;;;;;12.48;100.00;102274.75;5085137;28;20024;-60
2023/09/14 05:40:10;;;;;;;20.02;6.13;;;;;;;12.51;100.00;102271.19;5083654;28;20032;-62
2023/09/14 05:42:39;;;;;;;19.40;6.25;;;;;;;12.54;100.00;102273.78;5086809;28;20039;-60
2023/09/14 05:45:06;;;;;;;16.83;6.63;;;;;;;12.60;100.00;102273.66;5085131;28;20020;-60
2023/09/14 05:47:31;;;;;;;18.45;6.28;;;;;;;12.68;100.00;102275.28;5085750;28;20037;-60
2023/09/14 05:49:56;;;;;;;17.98;6.43;;;;;;;12.71;100.00;102275.22;5084778;28;20012;-63
2023/09/14 05:52:22;;;;;;;17.42;6.53;;;;;;;12.76;100.00;102276.88;5086271;28;20131;-61
2023/09/14 05:54:47;;;;;;;15.18;5.75;;;;;;;12.86;100.00;102279.34;5085755;28;20547;-59
2023/09/14 05:57:14;;;;;;;17.27;7.00;;;;;;;12.92;100.00;102286.25;5086501;28;20107;-62
2023/09/14 05:59:39;;;;;;;15.85;6.80;;;;;;;13.02;100.00;102291.34;5082617;28;20432;-61
2023/09/14 06:02:05;;;;;;;20.15;6.65;;;;;;;13.06;100.00;102292.13;5069956;28;20497;-61
2023/09/14 06:04:31;;;;;;;19.02;7.05;;;;;;;13.16;100.00;102291.94;5072126;28;20031;-61
2023/09/14 06:06:56;;;;;;;18.52;7.43;;;;;;;13.20;100.00;102293.63;5073452;28;20017;-62
2023/09/14 06:09:21;;;;;;;16.20;6.80;;;;;;;13.24;100.00;102301.47;5076862;28;20028;-61
2023/09/14 06:11:47;;;;;;;26.10;7.35;;;;;;;13.29;100.00;102298.72;5071652;28;20111;-61
2023/09/14 06:14:12;;;;;;;20.20;7.85;;;;;;;13.42;100.00;102299.31;5084754;28;20346;-61
2023/09/14 06:16:37;;;;;;;15.07;7.25;;;;;;;13.48;100.00;102303.56;5085801;28;20062;-62
2023/09/14 06:19:03;;;;;;;17.88;7.32;;;;;;;13.56;100.00;102299.03;5085114;28;20021;-59
2023/09/14 06:21:28;;;;;;;23.30;7.70;;;;;;;13.66;100.00;102299.66;5085801;28;20028;-61
2023/09/14 06:23:54;;;;;;;17.88;7.68;;;;;;;13.70;100.00;102298.69;5085844;28;20016;-59
2023/09/14 06:26:19;;;;;;;21.38;8.50;;;;;;;13.76;100.00;102303.84;5072687;28;20029;-62
2023/09/14 06:28:45;;;;;;;22.25;8.60;;;;;;;13.84;100.00;102298.38;5068842;28;20064;-60
2023/09/14 06:31:10;;;;;;;21.02;7.30;;;;;;;13.92;100.00;102303.50;5076262;28;20020;-62
2023/09/14 06:33:36;;;;;;;17.70;7.75;;;;;;;13.98;100.00;102302.47;5085624;28;20541;-59
2023/09/14 06:36:01;;;;;;;24.38;7.90;;;;;;;14.02;100.00;102310.28;5085475;28;20020;-57
2023/09/14 06:38:26;;;;;;;16.40;7.47;;;;;;;14.09;100.00;102305.69;5084933;28;20043;-64
2023/09/14 06:40:52;;;;;;;17.17;6.97;;;;;;;14.17;100.00;102300.22;5085814;28;20078;-70
2023/09/14 06:43:18;;;;;;;20.02;7.32;;;;;;;14.29;100.00;102309.63;5085375;28;20039;-66
2023/09/14 06:45:43;;;;;;;15.52;6.68;;;;;;;14.40;100.00;102309.34;5085081;28;20028;-66
2023/09/14 06:48:09;;;;;;;15.15;6.57;;;;;;;14.57;100.00;102308.03;5084790;28;20039;-66
2023/09/14 06:50:34;;;;;;;14.35;5.90;;;;;;;14.59;100.00;102304.41;5086013;28;20027;-66
2023/09/14 06:52:59;;;;;;;19.85;7.10;;;;;;;14.63;100.00;102302.56;5082222;28;20122;-68
2023/09/14 06:55:25;;;;;;;17.48;6.05;;;;;;;14.62;100.00;102303.44;5086010;28;20067;-69
2023/09/14 06:57:50;;;;;;;18.02;6.28;;;;;;;14.71;100.00;102297.91;5085469;28;20036;-66
2023/09/14 07:00:20;;;;;;;13.88;6.40;;;;;;;14.78;100.00;102303.94;5087048;28;20715;-67
2023/09/14 07:02:46;;;;;;;11.40;5.65;;;;;;;14.81;100.00;102303.84;5089854;28;20036;-66
2023/09/14 07:05:11;;;;;;;18.13;6.43;;;;;;;14.89;100.00;102301.84;5089845;28;20150;-68
2023/09/14 07:07:37;;;;;;;15.68;6.10;;;;;;;14.99;100.00;102296.28;5088615;28;20103;-67
2023/09/14 07:10:04;;;;;;;14.02;6.00;;;;;;;15.01;100.00;102300.63;5069410;28;20046;-66
2023/09/14 07:12:29;;;;;;;15.38;6.90;;;;;;;14.98;100.00;102290.09;5087074;28;20114;-69
2023/09/14 07:14:54;;;;;;;17.35;6.03;;;;;;;15.05;100.00;102289.91;5089121;28;20474;-65
2023/09/14 07:17:20;;;;;;;15.50;6.03;;;;;;;15.14;100.00;102294.97;5088428;28;20465;-70
2023/09/14 07:19:45;;;;;;;14.55;5.50;;;;;;;15.12;100.00;102297.66;5088419;28;20069;-67
2023/09/14 07:22:10;;;;;;;17.83;5.00;;;;;;;15.22;100.00;102297.34;5087805;28;20020;-67
2023/09/14 07:24:36;;;;;;;14.60;5.10;;;;;;;15.33;100.00;102297.03;5087699;28;20040;-63
2023/09/14 07:27:01;;;;;;;13.80;5.55;;;;;;;15.36;100.00;102295.16;5085889;28;20054;-66
2023/09/14 07:29:28;;;;;;;17.30;5.78;;;;;;;15.40;100.00;102301.25;5087205;28;20016;-67
2023/09/14 07:31:54;;;;;;;11.50;4.75;;;;;;;15.57;100.00;102286.56;5088717;28;20577;-67
2023/09/14 07:34:19;;;;;;;16.23;5.07;;;;;;;15.69;100.00;102298.59;5087142;28;20379;-68
2023/09/14 07:36:45;;;;;;;12.32;5.20;;;;;;;15.91;100.00;102302.28;5075846;28;20036;-63
2023/09/14 07:39:10;;;;;;;14.23;5.00;;;;;;;15.97;100.00;102303.00;5081546;28;20027;-67
2023/09/14 07:41:36;;;;;;;18.42;5.25;;;;;;;16.09;100.00;102310.59;5090180;28;20043;-68
2023/09/14 07:44:02;;;;;;;12.95;5.00;;;;;;;16.21;100.00;102314.63;5087612;28;20039;-69
2023/09/14 07:46:27;;;;;;;14.63;5.80;;;;;;;16.24;100.00;102313.63;5088481;28;20030;-66
2023/09/14 07:48:52;;;;;;;13.70;5.20;;;;;;;16.33;100.00;102320.44;5087190;28;20035;-65
2023/09/14 07:51:18;;;;;;;10.38;5.15;;;;;;;16.48;100.00;102324.34;5088441;28;20012;-66
2023/09/14 07:53:44;;;;;;;9.80;4.93;;;;;;;16.66;100.00;102320.16;5086756;28;20131;-66
2023/09/14 07:56:09;;;;;;;7.70;4.28;;;;;;;16.67;100.00;102325.44;5087991;28;20020;-63
2023/09/14 07:58:34;;;;;;;11.55;4.85;;;;;;;16.76;100.00;102323.34;5084537;28;20016;-66
2023/09/14 08:01:00;;;;;;;13.40;5.70;;;;;;;16.82;100.00;102320.47;5087167;28;20111;-62
2023/09/14 08:03:27;;;;;;;18.73;4.85;;;;;;;16.87;100.00;102323.84;5087691;28;20259;-65
2023/09/14 08:05:52;;;;;;;15.07;5.50;;;;;;;16.88;100.00;102322.91;5086339;28;20020;-63
2023/09/14 08:08:18;;;;;;;14.15;5.28;;;;;;;16.99;100.00;102321.63;5088493;28;20470;-64
2023/09/14 08:10:53;;;;;;;11.80;4.78;;;;;;;17.01;100.00;102325.97;5085803;28;20206;-67
2023/09/14 08:13:19;;;;;;;12.00;5.28;;;;;;;17.02;100.00;102317.06;5086779;28;20032;-66
2023/09/14 08:15:44;;;;;;;12.40;5.00;;;;;;;16.98;100.00;102320.75;5082759;28;20028;-65
2023/09/14 08:18:09;;;;;;;12.80;5.07;;;;;;;17.16;100.00;102318.38;5084704;28;20494;-66
2023/09/14 08:20:39;;;;;;;18.35;5.28;;;;;;;17.23;100.00;102319.00;5084527;28;20020;-66
2023/09/14 08:23:05;;;;;;;19.75;5.97;;;;;;;17.14;100.00;102314.88;5087213;28;20042;-67
2023/09/14 08:25:31;;;;;;;11.18;4.90;;;;;;;17.33;100.00;102316.88;5083860;28;20024;-67
2023/09/14 08:27:56;;;;;;;13.60;5.15;;;;;;;17.37;100.00;102314.00;5086713;28;20028;-63
2023/09/14 08:30:22;;;;;;;14.45;5.97;;;;;;;17.32;100.00;102320.44;5085516;28;20028;-66
2023/09/14 08:32:48;;;;;;;11.80;5.43;;;;;;;17.32;100.00;102318.66;5086752;28;20016;-68
2023/09/14 08:35:39;;;;;;;15.18;5.55;;;;;;;17.30;100.00;102317.81;5083798;28;20030;-71
2023/09/14 08:38:06;;;;;;;10.65;4.57;;;;;;;17.45;100.00;102318.16;5081945;28;20036;-69
2023/09/14 08:40:33;;;;;;;13.10;5.25;;;;;;;17.45;100.00;102324.34;5085517;28;20020;-69
2023/09/14 08:43:00;;;;;;;14.50;4.45;;;;;;;17.66;100.00;102321.75;5075307;28;20421;-65
2023/09/14 08:45:27;;;;;;;12.77;4.55;;;;;;;17.97;100.00;102325.81;5086045;28;20031;-62
2023/09/14 08:47:54;;;;;;;13.80;5.03;;;;;;;18.08;100.00;102321.84;5085462;28;20401;-67
2023/09/14 08:50:25;;;;;;;12.68;5.43;;;;;;;18.16;100.00;102325.97;5086193;28;20085;-68
2023/09/14 08:52:50;;;;;;;11.15;5.40;;;;;;;18.21;100.00;102322.22;5083191;28;20557;-65
2023/09/14 08:55:18;;;;;;;10.45;5.07;;;;;;;18.28;100.00;102323.69;5085195;28;20111;-65
2023/09/14 08:57:44;;;;;;;13.45;4.32;;;;;;;18.43;100.00;102325.69;5086339;28;20020;-65
2023/09/14 09:00:17;;;;;;;10.63;5.47;;;;;;;18.44;100.00;102322.09;5083862;28;20441;-65
2023/09/14 09:02:51;;;;;;;9.63;4.35;;;;;;;18.60;100.00;102320.56;5086215;28;20485;-63
2023/09/14 09:05:18;;;;;;;11.70;5.15;;;;;;;18.65;100.00;102324.75;5083821;28;20055;-68
2023/09/14 09:07:45;;;;;;;10.35;5.00;;;;;;;18.64;100.00;102322.16;5072723;28;20028;-66
2023/09/14 09:10:21;;;;;;;10.02;4.75;;;;;;;18.49;100.00;102329.91;5082755;28;20027;-66
2023/09/14 09:12:46;;;;;;;13.05;5.60;;;;;;;18.53;100.00;102325.28;5082527;28;20386;-63
2023/09/14 09:15:13;;;;;;;12.90;5.53;;;;;;;18.50;100.00;102323.63;5085880;28;20036;-65
2023/09/14 09:17:44;;;;;;;14.23;6.13;;;;;;;18.49;100.00;102329.91;5073979;28;20024;-66
2023/09/14 09:20:19;;;;;;;12.73;4.32;;;;;;;18.66;100.00;102318.47;5086776;28;20455;-64
2023/09/14 09:22:45;;;;;;;10.15;5.38;;;;;;;18.94;100.00;102316.34;5084433;28;20058;-69
2023/09/14 09:25:11;;;;;;;10.25;5.00;;;;;;;19.03;100.00;102321.25;5086015;28;20047;-65
2023/09/14 09:27:39;;;;;;;14.52;4.95;;;;;;;19.06;100.00;102320.25;5083985;28;20031;-66
2023/09/14 09:30:11;;;;;;;13.60;6.30;;;;;;;19.05;100.00;102321.19;5085365;28;20016;-66
2023/09/14 09:32:37;;;;;;;14.70;5.53;;;;;;;19.02;100.00;102318.69;5080300;28;20042;-66
2023/09/14 09:35:16;;;;;;;12.05;5.72;;;;;;;19.16;100.00;102316.25;5068656;28;20044;-65
2023/09/14 09:37:41;;;;;;;11.27;5.10;;;;;;;19.16;100.00;102318.94;5083642;28;20436;-66
2023/09/14 09:40:12;;;;;;;9.88;4.88;;;;;;;19.12;100.00;102320.03;5085254;28;20107;-67
2023/09/14 09:42:38;;;;;;;14.43;4.80;;;;;;;19.19;100.00;102313.44;5082578;28;20055;-66
2023/09/14 09:45:04;;;;;;;13.05;5.25;;;;;;;19.34;100.00;102310.09;5088055;28;20445;-65
2023/09/14 09:47:32;;;;;;;12.25;5.70;;;;;;;19.54;100.00;102314.50;5084782;28;20024;-65
2023/09/14 09:49:57;;;;;;;9.57;5.80;;;;;;;19.61;100.00;102310.56;5070345;28;20100;-65
2023/09/14 09:52:23;;;;;;;8.95;4.43;;;;;;;19.79;100.00;102302.56;5079982;28;20577;-64
2023/09/14 09:54:49;;;;;;;11.18;4.72;;;;;;;20.12;100.00;102304.53;5084318;28;20028;-65
2023/09/14 09:57:15;;;;;;;8.75;5.25;;;;;;;20.64;100.00;102299.16;5086439;28;20025;-66
2023/09/14 09:59:42;;;;;;;9.88;4.88;;;;;;;20.90;100.00;102310.31;5085369;28;20024;-62
2023/09/14 10:02:09;;;;;;;12.25;5.60;;;;;;;20.93;100.00;102307.47;5066482;28;20028;-67
2023/09/14 10:04:35;;;;;;;10.20;4.45;;;;;;;20.91;100.00;102299.53;5085710;28;20043;-68
2023/09/14 10:07:04;;;;;;;14.88;5.57;;;;;;;20.84;100.00;102300.78;5067198;28;20028;-65
2023/09/14 10:09:34;;;;;;;11.80;4.72;;;;;;;21.06;98.10;102304.97;5084574;28;20449;-65
2023/09/14 10:12:03;;;;;;;14.40;5.72;;;;;;;21.26;97.00;102300.31;5083723;28;20394;-66
2023/09/14 10:14:28;;;;;;;;;;;;;;;21.39;91.22;102296.00;5085536;28;20035;-64
2023/09/14 10:16:54;;;;;;;15.05;4.93;;;;;;;21.46;91.04;102300.03;5076072;28;19917;-64
2023/09/14 10:19:20;;;;;;;8.98;4.38;;;;;;;21.44;92.97;102296.59;5048461;28;20159;-64
2023/09/14 10:21:46;;;;;;;7.72;4.00;;;;;;;21.81;87.19;102292.75;5083337;28;20115;-65
2023/09/14 10:24:12;;;;;;;8.32;3.53;;;;;;;22.00;84.93;102284.47;5085249;28;20123;-66
2023/09/14 10:26:38;;;;;;;9.48;3.80;;;;;;;22.16;81.99;102287.09;5082376;28;20530;-65
2023/09/14 10:29:07;;;;;;;8.57;4.15;;;;;;;21.95;86.43;102287.41;5084654;28;20024;-65
2023/09/14 10:31:34;;;;;;;8.82;3.50;;;;;;;22.13;87.17;102291.78;5086184;28;20027;-64
2023/09/14 10:34:00;;;;;;;11.57;3.78;;;;;;;21.96;86.86;102290.97;5066226;28;20036;-64
2023/09/14 10:36:29;;;;;;;6.38;3.92;;;;;;;21.96;88.93;102296.34;5068425;28;20502;-64
2023/09/14 10:38:54;;;;;;;;;;;;;;;22.01;84.01;102293.38;5070314;28;20029;-65
2023/09/14 10:41:19;;;;;;;9.63;4.00;;;;;;;22.07;83.21;102285.81;5069352;28;19917;-63
2023/09/14 10:43:46;;;;;;;8.65;4.05;;;;;;;21.95;82.13;102289.25;5086969;28;20274;-62
2023/09/14 10:46:15;;;;;;;9.05;3.70;;;;;;;21.95;82.70;102287.41;5089321;28;20110;-64
2023/09/14 10:48:41;;;;;;;10.55;3.78;;;;;;;21.75;85.01;102277.88;5068605;28;20025;-63
2023/09/14 10:51:09;;;;;;;10.63;4.00;;;;;;;21.54;84.66;102280.84;5067166;28;20482;-65
2023/09/14 10:53:35;;;;;;;6.75;3.80;;;;;;;21.19;84.48;102278.38;5067256;28;20045;-65
2023/09/14 10:56:02;;;;;;;8.10;3.80;;;;;;;20.99;84.94;102277.66;5070131;28;20024;-64
2023/09/14 10:58:39;;;;;;;12.90;4.07;;;;;;;21.20;81.19;102275.59;5088123;28;20047;-64
2023/09/14 11:01:09;;;;;;;8.52;4.30;;;;;;;21.20;82.19;102272.91;5088786;28;20020;-64
2023/09/14 11:04:15;;;;;;;9.20;3.75;;;;;;;21.33;85.08;102285.63;5086201;28;20028;-63
2023/09/14 11:06:48;;;;;;;11.35;3.45;;;;;;;21.56;84.20;102278.94;5085713;28;20387;-65
2023/09/14 11:09:14;;;;;;;10.57;4.28;;;;;;;21.27;85.57;102273.44;5071856;28;20078;-66